Darin Adrian — WDE6485 — position and weather

sailwx.info

Track history (hours):
 
Tides and Currents Weather Stations Pressure Air Temp Water Temp Dewpoint Dewpoint Depression Visibility Wind Speed Wind Dir Waves Ship Positions

Darin Adrian

Owner: Marquette Transportation Company LLC, Paducah, KY. More information available from US FCC via Universal Licensing System and Coast Guard Vessel Documentation Center.

Last reported at 2017-Sep-24 03:00 UTC. Time now 2017-Sep-24 03:23 UTC.
Position N 32°20' W 090°54'.

Length 50 m; draft 3.4 m.

Type: Towing. MMSI: 367380840.

Date/timePositionNaut miles runAvg speedWind from/ knotsBaromVisibWave heightAir tempDewpointWater temp
2017-Sep-24 03:00N 32°20' W 090°54'3 6.0
2017-Sep-24 02:30N 32°21' W 090°57'3 5.5
2017-Sep-24 02:00N 32°22' W 091°00'3 6.3
2017-Sep-24 01:30N 32°25' W 091°00'4 7.1
2017-Sep-24 01:00N 32°27' W 091°04'3 6.6
2017-Sep-24 00:30N 32°29' W 091°07'4 7.0
2017-Sep-23 23:58N 32°33' W 091°06'4 7.0
2017-Sep-23 23:26N 32°36' W 091°08'4 6.7
2017-Sep-23 22:46N 32°40' W 091°08'  
2017-Sep-14 12:40N 32°44' W 091°05'1 4.7
2017-Sep-14 12:30N 32°44' W 091°04'6 3.5
2017-Sep-14 10:51N 32°40' W 091°08'2 4.0
2017-Sep-14 10:21N 32°38' W 091°09'1 4.2
2017-Sep-14 10:00N 32°36' W 091°09'2 4.6
2017-Sep-14 09:30N 32°35' W 091°07'2 4.1
2017-Sep-14 09:00N 32°33' W 091°06'2 4.7
2017-Sep-14 08:30N 32°31' W 091°07'2 4.8
2017-Sep-14 08:00N 32°28' W 091°06'2 4.7
2017-Sep-14 07:30N 32°27' W 091°04'2 4.7
2017-Sep-14 07:00N 32°26' W 091°01'2 4.2
2017-Sep-14 06:30N 32°25' W 090°59'2 3.3
2017-Sep-14 06:00N 32°23' W 090°60'2 3.7
2017-Sep-14 05:30N 32°21' W 090°60'2 4.9
2017-Sep-14 05:00N 32°21' W 090°57'2 4.5
2017-Sep-14 04:30N 32°20' W 090°54'2 3.9
2017-Sep-14 04:00N 32°18' W 090°55'2 4.5
2017-Sep-14 03:30N 32°17' W 090°57'  
Track history (hours):
 
Tides and Currents Weather Stations Pressure Air Temp Water Temp Dewpoint Dewpoint Depression Visibility Wind Speed Wind Dir Waves Ship Positions

Darin Adrian

Owner: Marquette Transportation Company LLC, Paducah, KY. More information available from US FCC via Universal Licensing System and Coast Guard Vessel Documentation Center.

Last reported at 2017-Sep-24 03:00 UTC. Time now 2017-Sep-24 03:23 UTC.
Position N 32°20' W 090°54'.

Length 50 m; draft 3.4 m.

Type: Towing. MMSI: 367380840.

Date/timePositionNaut miles runAvg speedWind from/ knotsBaromVisibWave heightAir tempDewpointWater temp
2017-Sep-24 03:00N 32°20' W 090°54'3 6.0
2017-Sep-24 02:30N 32°21' W 090°57'3 5.5
2017-Sep-24 02:00N 32°22' W 091°00'3 6.3
2017-Sep-24 01:30N 32°25' W 091°00'4 7.1
2017-Sep-24 01:00N 32°27' W 091°04'3 6.6
2017-Sep-24 00:30N 32°29' W 091°07'4 7.0
2017-Sep-23 23:58N 32°33' W 091°06'4 7.0
2017-Sep-23 23:26N 32°36' W 091°08'4 6.7
2017-Sep-23 22:46N 32°40' W 091°08'  
2017-Sep-14 12:40N 32°44' W 091°05'1 4.7
2017-Sep-14 12:30N 32°44' W 091°04'6 3.5
2017-Sep-14 10:51N 32°40' W 091°08'2 4.0
2017-Sep-14 10:21N 32°38' W 091°09'1 4.2
2017-Sep-14 10:00N 32°36' W 091°09'2 4.6
2017-Sep-14 09:30N 32°35' W 091°07'2 4.1
2017-Sep-14 09:00N 32°33' W 091°06'2 4.7
2017-Sep-14 08:30N 32°31' W 091°07'2 4.8
2017-Sep-14 08:00N 32°28' W 091°06'2 4.7
2017-Sep-14 07:30N 32°27' W 091°04'2 4.7
2017-Sep-14 07:00N 32°26' W 091°01'2 4.2
2017-Sep-14 06:30N 32°25' W 090°59'2 3.3
2017-Sep-14 06:00N 32°23' W 090°60'2 3.7
2017-Sep-14 05:30N 32°21' W 090°60'2 4.9
2017-Sep-14 05:00N 32°21' W 090°57'2 4.5
2017-Sep-14 04:30N 32°20' W 090°54'2 3.9
2017-Sep-14 04:00N 32°18' W 090°55'2 4.5
2017-Sep-14 03:30N 32°17' W 090°57'  

Dump ship's entire track history